createdAt,value
2022-11-21T00:01:30.163Z,7.60
2022-11-21T00:03:58.217Z,7.70
2022-11-21T00:06:26.987Z,7.70
2022-11-21T00:08:59.329Z,7.70
2022-11-21T00:11:28.913Z,7.70
2022-11-21T00:13:56.966Z,7.70
2022-11-21T00:16:25.016Z,7.70
2022-11-21T00:18:53.024Z,7.60
2022-11-21T00:21:21.691Z,7.60
2022-11-21T00:23:50.872Z,7.60
2022-11-21T00:26:21.476Z,7.50
2022-11-21T00:28:53.671Z,7.50
2022-11-21T00:31:23.180Z,7.50
2022-11-21T00:33:51.276Z,7.50
2022-11-21T00:36:19.371Z,7.40
2022-11-21T00:38:47.555Z,7.40
2022-11-21T00:41:15.737Z,7.40
2022-11-21T00:43:43.878Z,7.40
2022-11-21T00:46:14.614Z,7.30
2022-11-21T00:48:42.808Z,7.30
2022-11-21T00:51:10.785Z,7.30
2022-11-21T00:53:38.787Z,7.30
2022-11-21T00:56:06.918Z,7.30
2022-11-21T00:58:35.044Z,7.30
2022-11-21T01:01:07.195Z,7.20
2022-11-21T01:03:37.098Z,7.20
2022-11-21T01:06:07.943Z,7.20
2022-11-21T01:08:37.806Z,7.10
2022-11-21T01:11:10.251Z,7.10
2022-11-21T01:13:38.454Z,7.00
2022-11-21T01:16:08.133Z,7.00
2022-11-21T01:18:38.349Z,6.90
2022-11-21T01:21:08.760Z,6.90
2022-11-21T01:23:36.706Z,6.80
2022-11-21T01:26:05.540Z,6.80
2022-11-21T01:28:34.366Z,6.80
2022-11-21T01:31:05.707Z,6.80
2022-11-21T01:33:33.816Z,6.70
2022-11-21T01:36:13.003Z,6.70
2022-11-21T01:38:42.104Z,6.80
2022-11-21T01:41:13.302Z,6.80
2022-11-21T01:43:41.661Z,6.80
2022-11-21T01:46:14.664Z,6.70
2022-11-21T01:48:48.423Z,6.70
2022-11-21T01:51:22.295Z,6.70
2022-11-21T01:53:56.357Z,6.70
2022-11-21T01:56:26.474Z,6.70
2022-11-21T01:58:59.445Z,6.70
2022-11-21T02:01:28.702Z,6.70
2022-11-21T02:03:57.849Z,6.80
2022-11-21T02:06:28.737Z,6.80
2022-11-21T02:08:58.453Z,6.80
2022-11-21T02:11:32.444Z,6.80
2022-11-21T02:14:01.712Z,6.80
2022-11-21T02:16:30.673Z,6.80
2022-11-21T02:18:58.792Z,6.70
2022-11-21T02:21:39.404Z,6.80
2022-11-21T02:24:13.591Z,6.80
2022-11-21T02:26:43.410Z,6.80
2022-11-21T02:29:11.561Z,6.90
2022-11-21T02:31:41.770Z,6.90
2022-11-21T02:34:09.991Z,6.90
2022-11-21T02:36:44.251Z,7.00
2022-11-21T02:39:19.919Z,7.00
2022-11-21T02:41:58.404Z,7.00
2022-11-21T02:44:30.749Z,7.00
2022-11-21T02:46:58.770Z,7.00
2022-11-21T02:49:35.688Z,7.00
2022-11-21T02:52:03.689Z,7.00
2022-11-21T02:54:31.784Z,7.00
2022-11-21T02:57:01.263Z,7.10
2022-11-21T02:59:29.356Z,7.10
2022-11-21T03:01:59.798Z,7.20
2022-11-21T03:04:29.267Z,7.10
2022-11-21T03:06:57.477Z,7.20
2022-11-21T03:09:25.548Z,7.10
2022-11-21T03:11:53.604Z,7.20
2022-11-21T03:14:22.995Z,7.20
2022-11-21T03:16:51.081Z,7.20
2022-11-21T03:19:19.256Z,7.30
2022-11-21T03:21:47.295Z,7.20
2022-11-21T03:24:15.420Z,7.30
2022-11-21T03:26:43.397Z,7.30
2022-11-21T03:29:11.517Z,7.30
2022-11-21T03:31:41.261Z,7.30
2022-11-21T03:34:09.317Z,7.30
2022-11-21T03:36:37.367Z,7.30
2022-11-21T03:39:06.485Z,7.30
2022-11-21T03:41:35.261Z,7.30
2022-11-21T03:44:05.725Z,7.30
2022-11-21T03:46:36.281Z,7.30
2022-11-21T03:49:06.637Z,7.30
2022-11-21T03:51:35.774Z,7.30
2022-11-21T03:54:04.240Z,7.20
2022-11-21T03:56:32.300Z,7.20
2022-11-21T03:59:00.449Z,7.10
2022-11-21T04:01:32.455Z,7.10
2022-11-21T04:04:03.279Z,7.10
2022-11-21T04:06:33.001Z,7.00
2022-11-21T04:09:00.972Z,7.10
2022-11-21T04:11:28.980Z,7.10
2022-11-21T04:13:56.933Z,7.10
2022-11-21T04:16:24.921Z,7.10
2022-11-21T04:18:53.429Z,7.10
2022-11-21T04:21:21.455Z,7.00
2022-11-21T04:23:50.776Z,7.10
2022-11-21T04:26:18.746Z,7.00
2022-11-21T04:28:46.869Z,7.00
2022-11-21T04:31:14.963Z,7.10
2022-11-21T04:33:43.003Z,7.10
2022-11-21T04:36:11.244Z,7.10
2022-11-21T04:38:39.400Z,7.10
2022-11-21T04:41:08.693Z,7.20
2022-11-21T04:43:36.677Z,7.20
2022-11-21T04:46:04.829Z,7.30
2022-11-21T04:48:33.652Z,7.30
2022-11-21T04:51:01.558Z,7.40
2022-11-21T04:53:29.551Z,7.40
2022-11-21T04:55:57.557Z,7.40
2022-11-21T04:58:26.986Z,7.50
2022-11-21T05:00:54.960Z,7.50
2022-11-21T05:03:23.232Z,7.50
2022-11-21T05:05:51.470Z,7.60
2022-11-21T05:08:19.455Z,7.60
2022-11-21T05:11:05.182Z,7.70
2022-11-21T05:13:34.569Z,7.70
2022-11-21T05:16:02.530Z,7.70
2022-11-21T05:18:30.815Z,7.70
2022-11-21T05:20:58.867Z,7.70
2022-11-21T05:23:26.976Z,7.70
2022-11-21T05:25:54.980Z,7.70
2022-11-21T05:28:23.010Z,7.70
2022-11-21T05:30:52.399Z,7.70
2022-11-21T05:33:20.538Z,7.70
2022-11-21T05:36:12.178Z,7.70
2022-11-21T05:38:40.599Z,7.70
2022-11-21T05:41:14.639Z,7.70
2022-11-21T05:44:00.892Z,7.60
2022-11-21T05:47:00.118Z,7.70
2022-11-21T05:49:30.952Z,7.60
2022-11-21T05:51:59.399Z,7.60
2022-11-21T05:54:27.733Z,7.50
2022-11-21T05:56:56.210Z,7.50
2022-11-21T05:59:24.466Z,7.50
2022-11-21T06:02:11.520Z,7.50
2022-11-21T06:04:39.532Z,7.50
2022-11-21T06:07:07.642Z,7.50
2022-11-21T06:09:35.863Z,7.50
2022-11-21T06:12:06.948Z,7.50
2022-11-21T06:14:37.846Z,7.50
2022-11-21T06:17:07.216Z,7.50
2022-11-21T06:19:35.167Z,7.50
2022-11-21T06:22:03.238Z,7.50
2022-11-21T06:24:31.380Z,7.60
2022-11-21T06:26:59.803Z,7.60
2022-11-21T06:29:27.879Z,7.60
2022-11-21T06:31:56.545Z,7.60
2022-11-21T06:34:27.571Z,7.60
2022-11-21T06:36:55.665Z,7.60
2022-11-21T06:39:25.799Z,7.60
2022-11-21T06:41:53.758Z,7.60
2022-11-21T06:44:21.682Z,7.60
2022-11-21T06:46:51.665Z,7.60
2022-11-21T06:49:19.892Z,7.60
2022-11-21T06:51:49.451Z,7.60
2022-11-21T06:54:17.526Z,7.60
2022-11-21T06:56:45.693Z,7.60
2022-11-21T06:59:13.807Z,7.60
2022-11-21T07:01:41.891Z,7.60
2022-11-21T07:04:09.960Z,7.60
2022-11-21T07:06:38.381Z,7.50
2022-11-21T07:12:16.116Z,7.50
2022-11-21T07:14:43.097Z,7.50
2022-11-21T07:17:12.455Z,7.50
2022-11-21T07:19:41.166Z,7.60
2022-11-21T07:22:09.611Z,7.60
2022-11-21T07:24:38.923Z,7.70
2022-11-21T07:27:06.968Z,7.60
2022-11-21T07:29:34.992Z,7.60
2022-11-21T07:32:03.075Z,7.60
2022-11-21T07:34:31.106Z,7.50
2022-11-21T07:36:59.111Z,7.50
2022-11-21T07:39:27.387Z,7.50
2022-11-21T07:41:57.175Z,7.40
2022-11-21T07:44:25.219Z,7.40
2022-11-21T07:46:57.755Z,7.30
2022-11-21T07:49:25.996Z,7.30
2022-11-21T07:51:54.315Z,7.20
2022-11-21T07:54:22.398Z,7.10
2022-11-21T07:56:50.349Z,7.10
2022-11-21T07:59:19.970Z,7.10
2022-11-21T08:01:48.451Z,7.10
2022-11-21T08:04:16.681Z,7.10
2022-11-21T08:06:44.772Z,7.10
2022-11-21T08:09:12.802Z,7.10
2022-11-21T08:11:42.718Z,7.20
2022-11-21T08:14:10.792Z,7.20
2022-11-21T08:16:40.219Z,7.20
2022-11-21T08:19:08.492Z,7.30
2022-11-21T08:21:38.774Z,7.30
2022-11-21T08:24:10.917Z,7.30
2022-11-21T08:26:39.172Z,7.40
2022-11-21T08:29:07.309Z,7.40
2022-11-21T08:31:35.422Z,7.40
2022-11-21T08:34:06.417Z,7.50
2022-11-21T08:36:35.962Z,7.50
2022-11-21T08:39:03.941Z,7.50
2022-11-21T08:41:49.625Z,7.40
2022-11-21T08:44:17.601Z,7.50
2022-11-21T08:46:45.629Z,7.40
2022-11-21T08:49:15.402Z,7.40
2022-11-21T08:51:43.354Z,7.50
2022-11-21T08:54:11.369Z,7.60
2022-11-21T08:56:39.462Z,7.70
2022-11-21T08:59:14.331Z,7.90
2022-11-21T09:01:49.598Z,8.00
2022-11-21T09:04:25.442Z,8.20
2022-11-21T09:06:53.611Z,8.30
2022-11-21T09:09:25.735Z,8.40
2022-11-21T09:11:53.993Z,8.50
2022-11-21T09:14:39.582Z,8.60
2022-11-21T09:17:25.038Z,8.70
2022-11-21T09:19:54.536Z,8.80
2022-11-21T09:22:22.609Z,8.80
2022-11-21T09:24:50.616Z,8.70
2022-11-21T09:27:18.658Z,8.70
2022-11-21T09:29:51.163Z,8.60
2022-11-21T09:32:22.214Z,8.50
2022-11-21T09:34:50.566Z,8.50
2022-11-21T09:37:22.534Z,8.60
2022-11-21T09:39:50.791Z,8.70
2022-11-21T09:42:42.208Z,8.80
2022-11-21T09:45:14.568Z,8.90
2022-11-21T09:47:45.473Z,9.10
2022-11-21T09:50:30.320Z,9.20
2022-11-21T09:53:03.741Z,9.30
2022-11-21T09:55:42.588Z,9.40
2022-11-21T09:58:20.425Z,9.50
2022-11-21T10:00:51.440Z,9.40
2022-11-21T10:03:22.745Z,9.40
2022-11-21T10:05:55.393Z,9.40
2022-11-21T10:08:35.892Z,9.40
2022-11-21T10:11:19.668Z,9.30
2022-11-21T10:14:06.753Z,9.30
2022-11-21T10:16:42.946Z,9.30
2022-11-21T10:19:22.175Z,9.30
2022-11-21T10:22:09.416Z,9.40
2022-11-21T10:24:52.985Z,9.40
2022-11-21T10:27:30.372Z,9.40
2022-11-21T10:30:05.547Z,9.50
2022-11-21T10:32:38.508Z,9.40
2022-11-21T10:35:16.060Z,9.40
2022-11-21T10:37:49.463Z,9.30
2022-11-21T10:40:31.806Z,9.40
2022-11-21T10:43:24.783Z,9.40
2022-11-21T10:45:52.524Z,9.60
2022-11-21T10:48:22.504Z,10.20
2022-11-21T10:51:08.981Z,11.20
2022-11-21T10:53:54.223Z,12.30
2022-11-21T10:56:26.411Z,13.40
2022-11-21T10:58:56.613Z,14.30
2022-11-21T11:01:29.700Z,14.60
2022-11-21T11:04:41.476Z,14.60
2022-11-21T11:07:22.793Z,14.80
2022-11-21T11:09:52.493Z,16.10
2022-11-21T11:12:45.477Z,15.90
2022-11-21T11:15:18.380Z,16.00
2022-11-21T11:17:52.978Z,15.50
2022-11-21T11:20:47.476Z,15.60
2022-11-21T11:23:26.269Z,15.90
2022-11-21T11:26:03.817Z,16.10
2022-11-21T11:28:37.991Z,16.40
2022-11-21T11:31:06.461Z,16.80
2022-11-21T11:33:39.159Z,16.90
2022-11-21T11:36:14.915Z,16.90
2022-11-21T11:38:53.597Z,16.50
2022-11-21T11:42:01.212Z,16.10
2022-11-21T11:44:53.617Z,15.40
2022-11-21T11:47:34.103Z,14.90
2022-11-21T11:50:12.575Z,14.80
2022-11-21T11:52:52.018Z,14.90
2022-11-21T11:55:25.044Z,14.90
2022-11-21T11:57:56.005Z,14.60
2022-11-21T12:00:33.509Z,14.40
2022-11-21T12:03:07.295Z,14.10
2022-11-21T12:05:37.431Z,13.40
2022-11-21T12:11:25.898Z,12.30
2022-11-21T12:13:57.588Z,11.50
2022-11-21T12:16:30.937Z,11.20
2022-11-21T12:19:03.942Z,11.00
2022-11-21T12:21:33.137Z,10.90
2022-11-21T12:24:04.446Z,10.80
2022-11-21T12:26:49.074Z,10.70
2022-11-21T12:29:29.569Z,10.70
2022-11-21T12:32:12.814Z,10.80
2022-11-21T12:34:57.980Z,10.90
2022-11-21T12:37:37.627Z,10.90
2022-11-21T12:40:30.515Z,11.00
2022-11-21T12:43:02.822Z,11.10
2022-11-21T12:45:32.755Z,11.60
2022-11-21T12:48:39.244Z,13.40
2022-11-21T12:51:36.895Z,15.50
2022-11-21T12:54:33.811Z,17.50
2022-11-21T12:57:10.272Z,18.30
2022-11-21T12:59:51.751Z,18.20
2022-11-21T13:02:29.757Z,16.70
2022-11-21T13:05:01.324Z,15.30
2022-11-21T13:07:31.940Z,14.70
2022-11-21T13:10:01.811Z,14.00
2022-11-21T13:12:40.087Z,13.50
2022-11-21T13:15:20.584Z,13.30
2022-11-21T13:17:55.934Z,13.00
2022-11-21T13:20:32.583Z,12.60
2022-11-21T13:23:06.206Z,12.40
2022-11-21T13:25:39.643Z,12.20
2022-11-21T13:28:33.820Z,11.90
2022-11-21T13:31:04.066Z,11.80
2022-11-21T13:33:53.094Z,11.70
2022-11-21T13:36:42.861Z,11.60
2022-11-21T13:39:38.225Z,11.60
2022-11-21T13:42:31.655Z,11.50
2022-11-21T13:44:59.930Z,11.50
2022-11-21T13:47:59.611Z,11.60
2022-11-21T13:50:53.515Z,11.50
2022-11-21T13:54:06.767Z,11.40
2022-11-21T13:56:37.499Z,11.30
2022-11-21T13:59:38.275Z,11.20
2022-11-21T14:02:38.088Z,11.20
2022-11-21T14:05:33.240Z,11.00
2022-11-21T14:08:19.423Z,10.90
2022-11-21T14:10:51.179Z,10.80
2022-11-21T14:13:24.601Z,10.70
2022-11-21T14:16:11.348Z,10.60
2022-11-21T14:18:43.250Z,10.40
2022-11-21T14:21:21.106Z,10.40
2022-11-21T14:23:49.226Z,10.30
2022-11-21T14:26:21.520Z,10.30
2022-11-21T14:28:49.640Z,10.20
2022-11-21T14:31:17.808Z,10.10
2022-11-21T14:33:47.490Z,10.10
2022-11-21T14:36:17.890Z,10.00
2022-11-21T14:39:02.186Z,10.00
2022-11-21T14:41:39.653Z,10.00
2022-11-21T14:44:19.580Z,10.00
2022-11-21T14:46:48.401Z,10.00
2022-11-21T14:49:25.127Z,9.90
2022-11-21T14:51:59.801Z,9.90
2022-11-21T14:54:31.781Z,9.90
2022-11-21T14:57:03.704Z,9.90
2022-11-21T14:59:34.539Z,9.90
2022-11-21T15:02:08.505Z,9.90
2022-11-21T15:04:37.787Z,9.90
2022-11-21T15:07:06.379Z,9.80
2022-11-21T15:12:30.475Z,9.60
2022-11-21T15:15:02.025Z,9.60
2022-11-21T15:17:30.448Z,9.50
2022-11-21T15:20:19.281Z,9.50
2022-11-21T15:22:49.308Z,9.40
2022-11-21T15:25:20.762Z,9.30
2022-11-21T15:27:51.247Z,9.30
2022-11-21T15:30:27.764Z,9.10
2022-11-21T15:33:03.523Z,9.10
2022-11-21T15:35:43.247Z,9.10
2022-11-21T15:38:33.075Z,9.00
2022-11-21T15:41:25.017Z,8.90
2022-11-21T15:43:56.320Z,8.80
2022-11-21T15:46:26.029Z,8.70
2022-11-21T15:48:55.591Z,8.60
2022-11-21T15:51:51.405Z,8.60
2022-11-21T15:54:15.555Z,8.60
2022-11-21T15:56:43.538Z,8.60
2022-11-21T15:59:12.948Z,8.60
2022-11-21T16:01:41.258Z,8.50
2022-11-21T16:04:11.482Z,8.50
2022-11-21T16:06:39.571Z,8.40
2022-11-21T16:09:07.661Z,8.30
2022-11-21T16:11:39.158Z,8.20
2022-11-21T16:14:08.771Z,8.10
2022-11-21T16:16:43.148Z,8.00
2022-11-21T16:19:15.253Z,8.00
2022-11-21T16:21:43.614Z,7.90
2022-11-21T16:24:11.554Z,7.90
2022-11-21T16:26:39.485Z,7.90
2022-11-21T16:29:07.434Z,7.90
2022-11-21T16:31:36.981Z,7.80
2022-11-21T16:34:04.988Z,7.80
2022-11-21T16:36:36.233Z,7.80
2022-11-21T16:39:11.156Z,7.70
2022-11-21T16:41:41.642Z,7.70
2022-11-21T16:44:14.606Z,7.70
2022-11-21T16:46:45.290Z,7.60
2022-11-21T16:49:14.692Z,7.70
2022-11-21T16:51:44.324Z,7.60
2022-11-21T16:54:12.803Z,7.50
2022-11-21T16:56:40.930Z,7.50
2022-11-21T16:59:09.457Z,7.50
2022-11-21T17:01:38.214Z,7.50
2022-11-21T17:04:14.159Z,7.40
2022-11-21T17:06:45.390Z,7.50
2022-11-21T17:09:13.462Z,7.50
2022-11-21T17:11:41.520Z,7.60
2022-11-21T17:14:12.003Z,7.60
2022-11-21T17:16:41.613Z,7.60
2022-11-21T17:19:13.495Z,7.60
2022-11-21T17:21:43.266Z,7.60
2022-11-21T17:24:13.433Z,7.60
2022-11-21T17:26:41.785Z,7.60
2022-11-21T17:29:10.856Z,7.60
2022-11-21T17:31:41.673Z,7.60
2022-11-21T17:34:09.894Z,7.50
2022-11-21T17:36:39.357Z,7.50
2022-11-21T17:39:07.465Z,7.50
2022-11-21T17:41:35.439Z,7.60
2022-11-21T17:44:12.794Z,7.60
2022-11-21T17:46:40.792Z,7.60
2022-11-21T17:49:10.090Z,7.60
2022-11-21T17:51:40.464Z,7.60
2022-11-21T17:54:09.726Z,7.60
2022-11-21T17:56:45.917Z,7.60
2022-11-21T17:59:15.639Z,7.70
2022-11-21T18:01:43.827Z,7.70
2022-11-21T18:04:27.292Z,7.60
2022-11-21T18:06:56.724Z,7.70
2022-11-21T18:09:24.666Z,7.60
2022-11-21T18:11:52.729Z,7.60
2022-11-21T18:14:22.978Z,7.70
2022-11-21T18:16:53.343Z,7.80
2022-11-21T18:19:22.146Z,7.70
2022-11-21T18:21:50.262Z,7.80
2022-11-21T18:24:20.033Z,7.70
2022-11-21T18:26:48.314Z,7.80
2022-11-21T18:32:04.878Z,7.70
2022-11-21T18:34:32.856Z,7.70
2022-11-21T18:37:00.933Z,7.70
2022-11-21T18:39:30.806Z,7.70
2022-11-21T18:42:00.056Z,7.80
2022-11-21T18:44:27.986Z,7.80
2022-11-21T18:46:56.924Z,7.80
2022-11-21T18:49:25.026Z,7.80
2022-11-21T18:51:52.903Z,7.80
2022-11-21T18:54:20.901Z,7.80
2022-11-21T18:56:53.137Z,7.80
2022-11-21T18:59:21.110Z,7.70
2022-11-21T19:01:50.360Z,7.80
2022-11-21T19:04:18.374Z,7.80
2022-11-21T19:06:46.318Z,7.80
2022-11-21T19:09:15.002Z,7.90
2022-11-21T19:11:42.965Z,7.80
2022-11-21T19:14:12.378Z,7.90
2022-11-21T19:16:41.858Z,7.90
2022-11-21T19:19:33.551Z,7.90
2022-11-21T19:21:59.319Z,7.90
2022-11-21T19:24:27.416Z,7.90
2022-11-21T19:26:55.488Z,7.90
2022-11-21T19:29:24.922Z,8.00
2022-11-21T19:31:53.062Z,8.00
2022-11-21T19:34:21.152Z,7.90
2022-11-21T19:36:49.438Z,8.00
2022-11-21T19:39:18.224Z,8.00
2022-11-21T19:41:48.650Z,8.00
2022-11-21T19:44:16.856Z,8.00
2022-11-21T19:46:46.419Z,8.10
2022-11-21T19:49:16.532Z,8.10
2022-11-21T19:51:44.894Z,8.10
2022-11-21T19:54:16.212Z,8.10
2022-11-21T19:56:44.289Z,8.10
2022-11-21T19:59:14.528Z,8.10
2022-11-21T20:01:44.830Z,8.10
2022-11-21T20:04:17.698Z,8.10
2022-11-21T20:06:51.365Z,8.10
2022-11-21T20:09:21.708Z,8.10
2022-11-21T20:11:52.436Z,8.00
2022-11-21T20:14:22.719Z,8.00
2022-11-21T20:16:54.195Z,8.00
2022-11-21T20:19:26.771Z,8.00
2022-11-21T20:22:02.631Z,8.00
2022-11-21T20:24:50.290Z,8.00
2022-11-21T20:27:26.005Z,7.90
2022-11-21T20:29:56.285Z,7.90
2022-11-21T20:32:35.253Z,7.80
2022-11-21T20:35:08.466Z,7.70
2022-11-21T20:37:47.049Z,7.70
2022-11-21T20:40:17.836Z,7.60
2022-11-21T20:42:49.978Z,7.60
2022-11-21T20:46:08.064Z,7.50
2022-11-21T20:48:20.035Z,7.50
2022-11-21T20:58:08.057Z,7.40
2022-11-21T21:00:36.192Z,7.30
2022-11-21T21:03:04.505Z,7.30
2022-11-21T21:05:32.640Z,7.30
2022-11-21T21:08:02.234Z,7.20
2022-11-21T21:10:46.058Z,7.30
2022-11-21T21:13:18.588Z,7.20
2022-11-21T21:15:46.728Z,7.20
2022-11-21T21:18:14.939Z,7.20
2022-11-21T21:21:01.906Z,7.20
2022-11-21T21:23:33.792Z,7.10
2022-11-21T21:26:09.661Z,7.10
2022-11-21T21:28:37.820Z,7.10
2022-11-21T21:31:11.179Z,7.10
2022-11-21T21:33:40.004Z,7.10
2022-11-21T21:36:10.156Z,7.10
2022-11-21T21:38:39.813Z,7.10
2022-11-21T21:41:09.349Z,7.10
2022-11-21T21:43:37.913Z,7.00
2022-11-21T21:46:07.000Z,7.00
2022-11-21T21:48:35.488Z,7.00
2022-11-21T21:51:05.409Z,7.00
2022-11-21T21:53:36.099Z,7.00
2022-11-21T21:56:06.504Z,7.00
2022-11-21T21:58:35.747Z,7.00
2022-11-21T22:01:04.552Z,7.00
2022-11-21T22:03:32.947Z,7.00
2022-11-21T22:06:04.953Z,7.00
2022-11-21T22:08:34.875Z,7.00
2022-11-21T22:11:06.619Z,7.00
2022-11-21T22:13:35.288Z,6.90
2022-11-21T22:16:04.937Z,7.00
2022-11-21T22:18:33.499Z,7.00
2022-11-21T22:21:02.238Z,7.00
2022-11-21T22:23:30.667Z,7.00
2022-11-21T22:25:59.638Z,7.00
2022-11-21T22:28:29.842Z,7.00
2022-11-21T22:30:58.965Z,7.10
2022-11-21T22:33:29.549Z,7.00
2022-11-21T22:36:01.227Z,7.00
2022-11-21T22:38:29.882Z,7.00
2022-11-21T22:41:02.637Z,7.00
2022-11-21T22:43:32.470Z,7.00
2022-11-21T22:46:04.455Z,7.00
2022-11-21T22:48:33.300Z,7.00
2022-11-21T22:51:01.301Z,7.00
2022-11-21T22:53:34.461Z,7.00
2022-11-21T22:56:07.883Z,7.00
2022-11-21T22:58:42.062Z,7.00
2022-11-21T23:01:12.145Z,7.00
2022-11-21T23:03:40.982Z,7.00
2022-11-21T23:06:11.234Z,7.00
2022-11-21T23:08:40.213Z,6.90
2022-11-21T23:11:10.938Z,6.90
2022-11-21T23:13:43.591Z,6.80
2022-11-21T23:16:12.467Z,6.80
2022-11-21T23:18:42.631Z,6.80
2022-11-21T23:21:11.581Z,6.80
2022-11-21T23:23:39.875Z,6.80
2022-11-21T23:26:08.581Z,6.80
2022-11-21T23:28:36.832Z,6.80
2022-11-21T23:31:06.464Z,6.80
2022-11-21T23:33:34.615Z,6.80
2022-11-21T23:36:02.847Z,6.80
2022-11-21T23:38:31.168Z,6.80
2022-11-21T23:40:59.261Z,6.80
2022-11-21T23:43:27.372Z,6.80
2022-11-21T23:45:56.337Z,6.90
2022-11-21T23:48:27.473Z,6.90
2022-11-21T23:50:56.060Z,6.90
2022-11-21T23:53:24.364Z,6.90
2022-11-21T23:55:52.462Z,6.90
2022-11-21T23:58:20.410Z,7.00
